< < Back
Terminal Aerodrome Forecast


Current Version              Previous Versions:   1  2  3  4  5  6  7  8  9  

Terminal Aerodrome Forecast

488
FTUS42 KILM 291723
TAFFLO
TAF
KFLO 291723Z 2918/3018 14007KT P6SM SCT025 SCT050
     FM300000 09003KT P6SM SCT080
     FM300700 VRB02KT 6SM BR BKN020
     FM301000 VRB02KT 2SM BR BKN009
     FM301400 12006KT P6SM SCT020 BKN035=



Latest METAR

784
SAUS70 KWBC 292200 RRD
MTRFLO
METAR KFLO 292153Z AUTO 00000KT 10SM CLR 31/13 A3014 RMK AO2 SLP204
T03110128 TSNO


USA.gov is the U.S. government's official web portal to all federal, state and local government web resources and services.